createdAt,value
2018-05-09T00:00:28.680Z,65.14
2018-05-09T00:01:28.702Z,65.33
2018-05-09T00:02:28.752Z,65.05
2018-05-09T00:03:28.651Z,65.14
2018-05-09T00:04:28.574Z,64.66
2018-05-09T00:05:28.570Z,65.43
2018-05-09T00:06:28.548Z,65.05
2018-05-09T00:07:28.677Z,64.86
2018-05-09T00:08:28.523Z,65.43
2018-05-09T00:09:28.577Z,66.68
2018-05-09T00:10:28.430Z,66.49
2018-05-09T00:11:28.511Z,67.45
2018-05-09T00:12:28.397Z,65.53
2018-05-09T00:13:28.464Z,66.78
2018-05-09T00:14:28.373Z,67.35
2018-05-09T00:15:28.351Z,66.97
2018-05-09T00:16:28.367Z,66.68
2018-05-09T00:17:28.367Z,66.78
2018-05-09T00:18:28.306Z,66.88
2018-05-09T00:19:28.226Z,66.78
2018-05-09T00:20:28.228Z,67.55
2018-05-09T00:21:28.180Z,67.55
2018-05-09T00:22:28.204Z,68.70
2018-05-09T00:23:28.196Z,68.60
2018-05-09T00:24:28.160Z,68.60
2018-05-09T00:25:28.175Z,68.60
2018-05-09T00:26:28.079Z,68.80
2018-05-09T00:27:28.094Z,68.60
2018-05-09T00:28:28.169Z,68.99
2018-05-09T00:29:27.990Z,69.38
2018-05-09T00:30:27.990Z,68.99
2018-05-09T00:31:27.960Z,70.34
2018-05-09T00:32:27.935Z,70.72
2018-05-09T00:33:28.024Z,70.11
2018-05-09T00:34:27.929Z,70.92
2018-05-09T00:35:27.915Z,69.38
2018-05-09T00:36:27.883Z,69.85
2018-05-09T00:37:27.830Z,70.59
2018-05-09T00:38:27.872Z,71.69
2018-05-09T00:39:28.382Z,70.88
2018-05-09T00:40:27.805Z,71.59
2018-05-09T00:41:27.703Z,71.01
2018-05-09T00:42:27.686Z,73.03
2018-05-09T00:43:27.654Z,70.68
2018-05-09T00:44:27.687Z,71.59
2018-05-09T00:45:27.606Z,71.75
2018-05-09T00:46:27.714Z,72.74
2018-05-09T00:47:27.585Z,72.23
2018-05-09T00:48:27.539Z,73.38
2018-05-09T00:49:27.559Z,73.19
2018-05-09T00:50:27.492Z,73.19
2018-05-09T00:51:27.513Z,73.77
2018-05-09T00:52:27.477Z,73.09
2018-05-09T00:53:27.475Z,73.19
2018-05-09T00:54:27.434Z,73.57
2018-05-09T00:55:27.403Z,73.86
2018-05-09T00:56:27.356Z,72.42
2018-05-09T00:57:27.369Z,71.88
2018-05-09T00:58:27.302Z,72.52
2018-05-09T00:59:27.330Z,73.67
2018-05-09T01:00:27.293Z,73.47
2018-05-09T01:01:27.307Z,73.28
2018-05-09T01:02:27.226Z,74.54
2018-05-09T01:03:27.237Z,74.82
2018-05-09T01:04:27.227Z,74.34
2018-05-09T01:05:27.135Z,74.63
2018-05-09T01:06:27.146Z,74.92
2018-05-09T01:07:27.178Z,75.88
2018-05-09T01:08:27.159Z,74.73
2018-05-09T01:09:27.132Z,75.31
2018-05-09T01:10:27.073Z,74.44
2018-05-09T01:11:27.003Z,75.11
2018-05-09T01:12:27.030Z,75.11
2018-05-09T01:13:27.137Z,74.82
2018-05-09T01:14:26.930Z,74.92
2018-05-09T01:15:26.912Z,76.26
2018-05-09T01:16:26.972Z,76.65
2018-05-09T01:17:26.887Z,76.75
2018-05-09T01:18:26.900Z,77.33
2018-05-09T01:19:26.887Z,75.69
2018-05-09T01:20:26.888Z,75.98
2018-05-09T01:21:26.797Z,75.40
2018-05-09T01:22:26.724Z,75.49
2018-05-09T01:23:26.750Z,75.59
2018-05-09T01:24:26.715Z,75.59
2018-05-09T01:25:26.742Z,75.49
2018-05-09T01:26:26.700Z,76.17
2018-05-09T01:27:26.653Z,77.23
2018-05-09T01:28:26.589Z,77.71
2018-05-09T01:29:26.622Z,77.90
2018-05-09T01:30:26.600Z,77.81
2018-05-09T01:31:26.566Z,78.67
2018-05-09T01:32:26.551Z,78.09
2018-05-09T01:33:26.549Z,77.90
2018-05-09T01:34:26.454Z,77.81
2018-05-09T01:35:26.434Z,77.04
2018-05-09T01:36:26.460Z,78.67
2018-05-09T01:37:26.393Z,77.81
2018-05-09T01:38:26.424Z,77.81
2018-05-09T01:39:26.393Z,78.58
2018-05-09T01:40:26.368Z,78.19
2018-05-09T01:41:26.386Z,78.67
2018-05-09T01:42:26.261Z,79.44
2018-05-09T01:43:26.421Z,79.15
2018-05-09T01:44:26.252Z,80.55
2018-05-09T01:45:26.221Z,78.58
2018-05-09T01:46:26.225Z,78.73
2018-05-09T01:47:26.273Z,80.11
2018-05-09T01:48:26.207Z,79.60
2018-05-09T01:49:26.124Z,79.79
2018-05-09T01:50:26.085Z,80.46
2018-05-09T01:51:26.046Z,80.46
2018-05-09T01:52:26.104Z,80.17
2018-05-09T01:53:26.062Z,80.36
2018-05-09T01:54:25.989Z,80.36
2018-05-09T01:55:26.063Z,80.46
2018-05-09T01:56:26.000Z,80.65
2018-05-09T01:57:25.902Z,80.75
2018-05-09T01:58:25.924Z,81.99
2018-05-09T01:59:25.872Z,81.04
2018-05-09T02:00:25.928Z,80.36
2018-05-09T02:01:25.807Z,80.94
2018-05-09T02:02:25.779Z,81.42
2018-05-09T02:03:25.754Z,81.71
2018-05-09T02:04:25.763Z,82.76
2018-05-09T02:05:25.715Z,82.48
2018-05-09T02:06:25.685Z,82.38
2018-05-09T02:07:25.739Z,82.96
2018-05-09T02:08:25.666Z,81.61
2018-05-09T02:09:25.700Z,80.75
2018-05-09T02:10:25.592Z,81.04
2018-05-09T02:11:25.580Z,80.55
2018-05-09T02:12:25.550Z,81.23
2018-05-09T02:13:25.590Z,80.65
2018-05-09T02:14:25.489Z,82.38
2018-05-09T02:15:25.507Z,82.57
2018-05-09T02:16:25.445Z,82.09
2018-05-09T02:17:25.477Z,82.19
2018-05-09T02:18:25.449Z,81.42
2018-05-09T02:19:25.415Z,81.23
2018-05-09T02:20:25.410Z,82.09
2018-05-09T02:21:25.389Z,81.90
2018-05-09T02:22:25.338Z,82.38
2018-05-09T02:23:25.347Z,81.90
2018-05-09T02:24:25.291Z,82.67
2018-05-09T02:25:25.267Z,83.25
2018-05-09T02:26:25.240Z,83.06
2018-05-09T02:27:25.180Z,83.06
2018-05-09T02:28:25.160Z,83.53
2018-05-09T02:29:25.185Z,83.44
2018-05-09T02:30:25.191Z,84.01
2018-05-09T02:31:25.098Z,83.25
2018-05-09T02:32:25.149Z,83.15
2018-05-09T02:33:25.039Z,82.67
2018-05-09T02:34:25.075Z,83.34
2018-05-09T02:35:24.993Z,82.76
2018-05-09T02:36:24.968Z,84.01
2018-05-09T02:37:24.968Z,83.44
2018-05-09T02:38:24.928Z,84.01
2018-05-09T02:39:24.913Z,83.30
2018-05-09T02:40:24.892Z,83.25
2018-05-09T02:41:24.876Z,81.04
2018-05-09T02:42:24.817Z,82.38
2018-05-09T02:43:24.901Z,82.76
2018-05-09T02:44:24.801Z,82.67
2018-05-09T02:45:24.771Z,83.53
2018-05-09T02:46:24.771Z,83.25
2018-05-09T02:47:24.768Z,83.63
2018-05-09T02:48:24.759Z,83.44
2018-05-09T02:49:24.731Z,83.92
2018-05-09T02:50:24.655Z,83.83
2018-05-09T02:51:24.703Z,84.11
2018-05-09T02:52:24.643Z,83.78
2018-05-09T02:53:24.603Z,84.07
2018-05-09T02:54:24.556Z,84.45
2018-05-09T02:55:24.532Z,84.36
2018-05-09T02:56:24.555Z,84.36
2018-05-09T02:57:24.460Z,84.55
2018-05-09T02:58:24.507Z,84.84
2018-05-09T02:59:24.416Z,85.03
2018-05-09T03:00:24.420Z,84.26
2018-05-09T03:01:24.463Z,84.45
2018-05-09T03:02:24.397Z,84.84
2018-05-09T03:03:24.333Z,84.45
2018-05-09T03:04:24.373Z,84.94
2018-05-09T03:05:24.267Z,84.74
2018-05-09T03:06:24.247Z,84.74
2018-05-09T03:07:24.210Z,85.13
2018-05-09T03:08:24.203Z,85.13
2018-05-09T03:09:24.181Z,85.61
2018-05-09T03:10:24.173Z,85.47
2018-05-09T03:11:24.217Z,85.08
2018-05-09T03:12:24.133Z,85.47
2018-05-09T03:13:24.064Z,85.37
2018-05-09T03:14:24.126Z,85.08
2018-05-09T03:15:24.041Z,85.75
2018-05-09T03:16:23.999Z,85.28
2018-05-09T03:17:23.979Z,85.37
2018-05-09T03:18:23.946Z,85.57
2018-05-09T03:19:23.983Z,84.70
2018-05-09T03:20:23.945Z,85.85
2018-05-09T03:21:23.967Z,85.66
2018-05-09T03:22:23.984Z,85.66
2018-05-09T03:23:23.829Z,85.47
2018-05-09T03:24:23.862Z,85.37
2018-05-09T03:25:23.791Z,85.18
2018-05-09T03:26:23.876Z,85.57
2018-05-09T03:27:23.741Z,84.47
2018-05-09T03:28:23.708Z,85.85
2018-05-09T03:29:23.737Z,85.37
2018-05-09T03:30:23.673Z,85.75
2018-05-09T03:31:23.697Z,85.33
2018-05-09T03:32:23.681Z,85.18
2018-05-09T03:33:23.623Z,85.14
2018-05-09T03:34:23.617Z,85.81
2018-05-09T03:35:23.580Z,84.75
2018-05-09T03:36:23.518Z,85.14
2018-05-09T03:37:23.516Z,84.08
2018-05-09T03:38:23.512Z,83.98
2018-05-09T03:39:23.473Z,84.18
2018-05-09T03:40:23.459Z,84.08
2018-05-09T03:41:23.385Z,84.95
2018-05-09T03:42:23.433Z,84.47
2018-05-09T03:43:23.436Z,83.51
2018-05-09T03:44:23.396Z,84.66
2018-05-09T03:45:23.337Z,84.56
2018-05-09T03:46:23.311Z,84.37
2018-05-09T03:47:23.291Z,84.08
2018-05-09T03:48:23.255Z,84.14
2018-05-09T03:49:23.180Z,83.47
2018-05-09T03:50:23.214Z,82.70
2018-05-09T03:51:23.232Z,83.08
2018-05-09T03:52:23.114Z,82.60
2018-05-09T03:53:23.150Z,82.31
2018-05-09T03:54:23.144Z,83.18
2018-05-09T03:55:23.044Z,81.93
2018-05-09T03:56:23.065Z,82.79
2018-05-09T03:57:23.083Z,82.41
2018-05-09T03:58:23.036Z,82.03
2018-05-09T03:59:23.012Z,82.12
2018-05-09T04:00:22.950Z,82.03
2018-05-09T04:01:23.008Z,82.60
2018-05-09T04:02:24.500Z,81.84
2018-05-09T04:03:22.838Z,82.70
2018-05-09T04:04:22.817Z,81.64
2018-05-09T04:05:22.797Z,80.78
2018-05-09T04:06:22.777Z,82.21
2018-05-09T04:07:22.802Z,81.26
2018-05-09T04:08:22.711Z,80.68
2018-05-09T04:09:22.689Z,80.11
2018-05-09T04:10:22.675Z,79.63
2018-05-09T04:11:22.642Z,80.49
2018-05-09T04:12:22.610Z,80.49
2018-05-09T04:13:22.632Z,80.49
2018-05-09T04:14:22.660Z,80.49
2018-05-09T04:15:22.619Z,79.39
2018-05-09T04:16:22.518Z,80.26
2018-05-09T04:17:22.520Z,80.07
2018-05-09T04:18:22.490Z,79.78
2018-05-09T04:19:22.443Z,78.92
2018-05-09T04:20:22.429Z,78.92
2018-05-09T04:21:22.390Z,79.59
2018-05-09T04:22:22.367Z,79.68
2018-05-09T04:23:22.354Z,80.16
2018-05-09T04:24:22.427Z,79.59
2018-05-09T04:25:22.293Z,79.59
2018-05-09T04:26:22.271Z,78.92
2018-05-09T04:27:22.422Z,79.30
2018-05-09T04:28:22.277Z,78.92
2018-05-09T04:29:22.292Z,78.82
2018-05-09T04:30:22.165Z,78.72
2018-05-09T04:31:22.212Z,78.44
2018-05-09T04:32:22.162Z,78.82
2018-05-09T04:33:22.120Z,79.30
2018-05-09T04:34:22.099Z,78.05
2018-05-09T04:35:22.089Z,78.53
2018-05-09T04:36:22.096Z,78.63
2018-05-09T04:37:22.079Z,78.25
2018-05-09T04:38:23.041Z,77.67
2018-05-09T04:39:24.856Z,77.76
2018-05-09T04:40:21.959Z,77.09
2018-05-09T04:41:21.886Z,77.76
2018-05-09T04:42:21.921Z,77.58
2018-05-09T04:43:21.869Z,77.38
2018-05-09T04:44:21.817Z,77.00
2018-05-09T04:45:21.785Z,77.67
2018-05-09T04:46:21.767Z,76.90
2018-05-09T04:47:21.743Z,77.48
2018-05-09T04:48:21.726Z,77.76
2018-05-09T04:49:21.748Z,77.09
2018-05-09T04:50:21.758Z,77.67
2018-05-09T04:51:21.659Z,76.71
2018-05-09T04:52:21.623Z,76.42
2018-05-09T04:53:21.582Z,77.09
2018-05-09T04:54:21.562Z,77.09
2018-05-09T04:55:21.547Z,76.23
2018-05-09T04:56:21.517Z,75.95
2018-05-09T04:57:23.433Z,76.07
2018-05-09T04:58:21.516Z,75.40
2018-05-09T04:59:21.438Z,74.98
2018-05-09T05:00:21.469Z,75.60
2018-05-09T05:01:21.485Z,74.73
2018-05-09T05:02:21.431Z,75.12
2018-05-09T05:03:21.411Z,75.27
2018-05-09T05:04:21.382Z,74.73
2018-05-09T05:05:21.296Z,74.54
2018-05-09T05:06:21.321Z,75.60
2018-05-09T05:07:21.292Z,75.98
2018-05-09T05:08:21.263Z,75.50
2018-05-09T05:09:21.252Z,73.00
2018-05-09T05:10:21.244Z,75.02
2018-05-09T05:11:21.213Z,75.79
2018-05-09T05:12:21.176Z,75.40
2018-05-09T05:13:21.145Z,73.68
2018-05-09T05:14:21.123Z,72.72
2018-05-09T05:15:21.108Z,74.54
2018-05-09T05:16:21.082Z,73.72
2018-05-09T05:17:21.033Z,74.96
2018-05-09T05:18:21.042Z,74.77
2018-05-09T05:19:21.024Z,72.85
2018-05-09T05:20:20.981Z,73.72
2018-05-09T05:21:20.963Z,74.87
2018-05-09T05:22:20.962Z,74.10
2018-05-09T05:23:20.940Z,74.01
2018-05-09T05:24:20.862Z,72.95
2018-05-09T05:25:20.856Z,74.01
2018-05-09T05:26:20.824Z,73.72
2018-05-09T05:27:20.774Z,79.57
2018-05-09T05:28:20.777Z,75.54
2018-05-09T05:29:20.760Z,76.25
2018-05-09T05:30:20.687Z,79.13
2018-05-09T05:31:20.688Z,81.43
2018-05-09T05:32:20.673Z,80.76
2018-05-09T05:33:20.633Z,82.10
2018-05-09T05:34:20.624Z,81.34
2018-05-09T05:35:20.609Z,81.63
2018-05-09T05:36:20.520Z,82.34
2018-05-09T05:37:20.499Z,80.22
2018-05-09T05:38:20.499Z,80.80
2018-05-09T05:39:20.461Z,81.38
2018-05-09T05:40:20.425Z,80.32
2018-05-09T05:41:20.406Z,80.80
2018-05-09T05:42:20.427Z,83.11
2018-05-09T05:43:20.415Z,80.99
2018-05-09T05:44:20.369Z,80.13
2018-05-09T05:45:20.435Z,79.94
2018-05-09T05:46:20.333Z,81.48
2018-05-09T05:47:20.313Z,80.80
2018-05-09T05:48:20.299Z,80.71
2018-05-09T05:49:20.254Z,80.04
2018-05-09T05:50:20.211Z,80.99
2018-05-09T05:51:20.222Z,80.22
2018-05-09T05:52:20.181Z,80.51
2018-05-09T05:53:20.176Z,80.13
2018-05-09T05:54:20.145Z,80.32
2018-05-09T05:55:20.086Z,79.02
2018-05-09T05:56:20.086Z,80.32
2018-05-09T05:57:20.060Z,79.79
2018-05-09T05:58:20.033Z,80.36
2018-05-09T05:59:20.040Z,80.84
2018-05-09T06:00:19.980Z,80.75
2018-05-09T06:01:19.999Z,80.55
2018-05-09T06:02:19.957Z,82.29
2018-05-09T06:03:19.937Z,83.06
2018-05-09T06:04:19.895Z,82.76
2018-05-09T06:05:19.884Z,81.61
2018-05-09T06:06:19.887Z,81.32
2018-05-09T06:07:19.828Z,82.76
2018-05-09T06:08:19.797Z,81.37
2018-05-09T06:09:19.796Z,85.88
2018-05-09T06:10:19.750Z,84.34
2018-05-09T06:11:20.503Z,83.19
2018-05-09T06:12:19.701Z,84.16
2018-05-09T06:13:19.669Z,86.08
2018-05-09T06:14:19.659Z,84.92
2018-05-09T06:15:21.492Z,85.40
2018-05-09T06:16:22.503Z,85.88
2018-05-09T06:17:21.683Z,85.25
2018-05-09T06:18:21.524Z,86.02
2018-05-09T06:19:19.559Z,85.83
2018-05-09T06:20:19.501Z,85.93
2018-05-09T06:21:19.492Z,85.25
2018-05-09T06:22:19.446Z,85.64
2018-05-09T06:23:21.098Z,85.83
2018-05-09T06:24:19.555Z,86.89
2018-05-09T06:25:19.405Z,86.79
2018-05-09T06:26:19.356Z,86.51
2018-05-09T06:27:19.357Z,86.60
2018-05-09T06:28:19.324Z,86.31
2018-05-09T06:29:19.340Z,86.60
2018-05-09T06:30:19.262Z,85.97
2018-05-09T06:31:19.261Z,85.68
2018-05-09T06:32:19.243Z,85.68
2018-05-09T06:33:19.198Z,85.97
2018-05-09T06:34:19.188Z,85.68
2018-05-09T06:35:19.157Z,84.81
2018-05-09T06:36:19.138Z,85.39
2018-05-09T06:37:19.119Z,84.76
2018-05-09T06:38:19.081Z,83.99
2018-05-09T06:39:19.117Z,82.45
2018-05-09T06:40:19.034Z,81.96
2018-05-09T06:41:19.003Z,82.16
2018-05-09T06:42:18.993Z,81.20
2018-05-09T06:43:20.510Z,82.10
2018-05-09T06:44:18.929Z,81.91
2018-05-09T06:45:18.968Z,81.04
2018-05-09T06:46:19.013Z,81.24
2018-05-09T06:47:18.896Z,78.83
2018-05-09T06:48:18.843Z,78.25
2018-05-09T06:49:18.824Z,83.07
2018-05-09T06:50:18.801Z,82.01
2018-05-09T06:51:18.774Z,80.76
2018-05-09T06:52:18.762Z,79.02
2018-05-09T06:53:18.734Z,77.86
2018-05-09T06:54:18.728Z,78.34
2018-05-09T06:55:18.694Z,77.96
2018-05-09T06:56:18.677Z,75.55
2018-05-09T06:57:18.646Z,73.18
2018-05-09T06:58:19.036Z,71.73
2018-05-09T06:59:18.592Z,70.48
2018-05-09T07:00:18.568Z,70.57
2018-05-09T07:01:18.555Z,69.61
2018-05-09T07:02:18.590Z,69.51
2018-05-09T07:03:18.502Z,67.97
2018-05-09T07:04:18.489Z,67.14
2018-05-09T07:05:18.461Z,66.36
2018-05-09T07:06:18.462Z,64.92
2018-05-09T07:07:18.416Z,65.01
2018-05-09T07:08:18.395Z,64.72
2018-05-09T07:09:18.383Z,63.76
2018-05-09T07:10:18.350Z,64.24
2018-05-09T07:11:18.324Z,63.40
2018-05-09T07:12:20.964Z,63.21
2018-05-09T07:13:18.269Z,62.44
2018-05-09T07:14:18.258Z,62.54
2018-05-09T07:15:18.260Z,62.63
2018-05-09T07:16:18.222Z,62.44
2018-05-09T07:17:18.197Z,61.38
2018-05-09T07:18:18.171Z,61.96
2018-05-09T07:19:18.188Z,61.86
2018-05-09T07:20:21.082Z,61.86
2018-05-09T07:21:18.095Z,60.93
2018-05-09T07:22:20.025Z,61.31
2018-05-09T07:23:18.063Z,61.51
2018-05-09T07:24:18.018Z,60.16
2018-05-09T07:25:18.011Z,60.44
2018-05-09T07:26:17.991Z,59.77
2018-05-09T07:27:17.999Z,59.00
2018-05-09T07:28:17.936Z,59.19
2018-05-09T07:29:17.934Z,59.28
2018-05-09T07:30:17.941Z,59.28
2018-05-09T07:31:17.865Z,60.16
2018-05-09T07:32:17.849Z,59.86
2018-05-09T07:33:17.818Z,59.22
2018-05-09T07:34:17.824Z,59.31
2018-05-09T07:35:17.839Z,58.25
2018-05-09T07:36:17.759Z,58.25
2018-05-09T07:37:17.748Z,58.45
2018-05-09T07:38:17.710Z,58.06
2018-05-09T07:39:17.695Z,58.73
2018-05-09T07:40:17.673Z,59.41
2018-05-09T07:41:17.662Z,59.51
2018-05-09T07:42:17.712Z,60.67
2018-05-09T07:43:17.600Z,61.44
2018-05-09T07:44:17.597Z,61.63
2018-05-09T07:45:17.568Z,61.25
2018-05-09T07:46:17.538Z,60.57
2018-05-09T07:47:17.532Z,60.76
2018-05-09T07:48:17.520Z,59.80
2018-05-09T07:49:17.470Z,60.57
2018-05-09T07:50:17.448Z,60.47
2018-05-09T07:51:17.440Z,60.69
2018-05-09T07:52:17.486Z,60.69
2018-05-09T07:53:17.377Z,60.02
2018-05-09T07:54:17.356Z,59.80
2018-05-09T07:55:17.344Z,58.35
2018-05-09T07:56:17.345Z,58.64
2018-05-09T07:57:17.293Z,60.86
2018-05-09T07:58:17.260Z,60.50
2018-05-09T07:59:19.033Z,59.73
2018-05-09T08:00:17.238Z,59.15
2018-05-09T08:01:17.220Z,59.25
2018-05-09T08:02:17.199Z,59.73
2018-05-09T08:03:17.130Z,60.11
2018-05-09T08:04:17.115Z,59.15
2018-05-09T08:05:17.121Z,58.09
2018-05-09T08:06:17.109Z,58.76
2018-05-09T08:07:17.081Z,58.60
2018-05-09T08:08:17.109Z,58.12
2018-05-09T08:09:17.034Z,58.21
2018-05-09T08:10:17.010Z,57.31
2018-05-09T08:11:16.986Z,57.05
2018-05-09T08:12:16.981Z,57.05
2018-05-09T08:13:16.943Z,57.05
2018-05-09T08:14:16.926Z,56.47
2018-05-09T08:15:16.910Z,57.34
2018-05-09T08:16:16.878Z,55.21
2018-05-09T08:17:16.847Z,54.35
2018-05-09T08:18:16.808Z,53.09
2018-05-09T08:19:16.835Z,52.80
2018-05-09T08:20:16.811Z,52.14
2018-05-09T08:21:16.784Z,50.40
2018-05-09T08:22:16.765Z,50.60
2018-05-09T08:23:16.746Z,51.28
2018-05-09T08:24:16.691Z,52.24
2018-05-09T08:25:16.693Z,51.56
2018-05-09T08:26:16.670Z,51.47
2018-05-09T08:27:16.636Z,50.70
2018-05-09T08:28:16.628Z,50.60
2018-05-09T08:29:16.607Z,50.86
2018-05-09T08:30:16.653Z,50.50
2018-05-09T08:31:16.536Z,50.98
2018-05-09T08:32:16.526Z,50.89
2018-05-09T08:33:16.522Z,50.70
2018-05-09T08:34:16.502Z,50.70
2018-05-09T08:35:16.496Z,50.89
2018-05-09T08:36:16.532Z,50.98
2018-05-09T08:37:16.417Z,50.98
2018-05-09T08:38:16.389Z,50.12
2018-05-09T08:39:16.361Z,49.85
2018-05-09T08:40:16.373Z,50.43
2018-05-09T08:41:16.345Z,49.75
2018-05-09T08:42:16.512Z,49.85
2018-05-09T08:43:16.410Z,49.46
2018-05-09T08:44:16.304Z,50.14
2018-05-09T08:45:16.285Z,50.72
2018-05-09T08:46:16.210Z,50.62
2018-05-09T08:47:16.188Z,50.24
2018-05-09T08:48:16.219Z,50.62
2018-05-09T08:49:16.283Z,51.50
2018-05-09T08:50:16.167Z,51.10
2018-05-09T08:51:16.147Z,50.92
2018-05-09T08:52:16.167Z,51.30
2018-05-09T08:53:16.148Z,50.72
2018-05-09T08:54:16.122Z,50.55
2018-05-09T08:55:16.064Z,51.04
2018-05-09T08:56:16.056Z,50.92
2018-05-09T08:57:15.971Z,51.13
2018-05-09T08:58:16.007Z,51.04
2018-05-09T08:59:15.970Z,51.52
2018-05-09T09:00:15.961Z,50.65
2018-05-09T09:01:15.928Z,51.20
2018-05-09T09:02:15.917Z,51.59
2018-05-09T09:03:15.888Z,51.88
2018-05-09T09:04:17.616Z,51.59
2018-05-09T09:05:15.867Z,51.23
2018-05-09T09:06:15.829Z,52.29
2018-05-09T09:07:15.844Z,50.55
2018-05-09T09:08:15.784Z,50.87
2018-05-09T09:09:15.761Z,50.65
2018-05-09T09:10:15.776Z,50.84
2018-05-09T09:11:15.755Z,50.33
2018-05-09T09:12:15.754Z,51.52
2018-05-09T09:13:15.697Z,50.65
2018-05-09T09:14:15.682Z,50.55
2018-05-09T09:15:15.638Z,50.45
2018-05-09T09:16:15.620Z,50.65
2018-05-09T09:17:15.593Z,50.74
2018-05-09T09:18:15.581Z,50.38
2018-05-09T09:19:15.572Z,49.97
2018-05-09T09:20:15.545Z,49.49
2018-05-09T09:21:15.551Z,49.51
2018-05-09T09:22:15.538Z,49.12
2018-05-09T09:23:15.522Z,49.51
2018-05-09T09:24:15.473Z,49.99
2018-05-09T09:25:15.459Z,50.16
2018-05-09T09:26:15.440Z,49.80
2018-05-09T09:27:15.449Z,49.70
2018-05-09T09:28:15.388Z,49.80
2018-05-09T09:29:15.451Z,50.67
2018-05-09T09:30:17.045Z,50.87
2018-05-09T09:31:15.312Z,50.57
2018-05-09T09:32:15.302Z,50.60
2018-05-09T09:33:15.294Z,49.82
2018-05-09T09:34:15.276Z,49.92
2018-05-09T09:35:15.244Z,51.18
2018-05-09T09:36:15.231Z,50.89
2018-05-09T09:37:15.227Z,49.82
2018-05-09T09:38:15.203Z,49.63
2018-05-09T09:39:15.177Z,50.02
2018-05-09T09:40:15.149Z,50.12
2018-05-09T09:41:15.118Z,50.50
2018-05-09T09:42:15.118Z,50.60
2018-05-09T09:43:15.105Z,50.02
2018-05-09T09:44:15.067Z,49.63
2018-05-09T09:45:15.040Z,50.53
2018-05-09T09:46:15.071Z,49.95
2018-05-09T09:47:15.007Z,49.75
2018-05-09T09:48:15.008Z,49.56
2018-05-09T09:49:14.976Z,49.85
2018-05-09T09:50:14.937Z,49.95
2018-05-09T09:51:14.927Z,50.53
2018-05-09T09:52:14.920Z,50.53
2018-05-09T09:53:14.909Z,50.82
2018-05-09T09:54:14.889Z,50.56
2018-05-09T09:55:14.843Z,50.16
2018-05-09T09:56:14.824Z,49.39
2018-05-09T09:57:14.821Z,49.71
2018-05-09T09:58:14.781Z,49.51
2018-05-09T09:59:14.781Z,50.58
2018-05-09T10:00:14.755Z,49.71
2018-05-09T10:01:14.751Z,49.99
2018-05-09T10:02:14.723Z,49.02
2018-05-09T10:03:14.711Z,48.64
2018-05-09T10:04:14.664Z,49.41
2018-05-09T10:05:14.679Z,48.73
2018-05-09T10:06:14.651Z,49.61
2018-05-09T10:07:14.614Z,49.32
2018-05-09T10:08:14.599Z,50.12
2018-05-09T10:09:14.583Z,49.41
2018-05-09T10:10:14.563Z,48.83
2018-05-09T10:11:14.531Z,49.44
2018-05-09T10:12:14.519Z,48.57
2018-05-09T10:13:14.499Z,48.47
2018-05-09T10:14:14.476Z,49.63
2018-05-09T10:15:14.464Z,47.01
2018-05-09T10:16:14.518Z,46.25
2018-05-09T10:17:14.508Z,47.13
2018-05-09T10:18:14.401Z,47.13
2018-05-09T10:19:14.382Z,47.83
2018-05-09T10:20:14.358Z,46.86
2018-05-09T10:21:14.355Z,45.98
2018-05-09T10:22:14.330Z,45.31
2018-05-09T10:23:14.363Z,43.85
2018-05-09T10:24:14.263Z,43.09
2018-05-09T10:25:14.302Z,42.11
2018-05-09T10:26:14.278Z,42.68
2018-05-09T10:27:14.243Z,42.58
2018-05-09T10:28:14.223Z,42.90
2018-05-09T10:29:14.198Z,42.87
2018-05-09T10:30:14.183Z,42.29
2018-05-09T10:31:14.169Z,42.10
2018-05-09T10:32:14.136Z,39.94
2018-05-09T10:33:14.120Z,40.72
2018-05-09T10:34:14.106Z,42.66
2018-05-09T10:35:14.106Z,42.19
2018-05-09T10:36:14.079Z,42.90
2018-05-09T10:37:14.054Z,42.60
2018-05-09T10:38:14.031Z,42.11
2018-05-09T10:39:14.007Z,42.31
2018-05-09T10:40:14.013Z,42.29
2018-05-09T10:41:13.997Z,43.16
2018-05-09T10:42:13.979Z,43.75
2018-05-09T10:43:13.947Z,44.14
2018-05-09T10:44:13.919Z,43.16
2018-05-09T10:45:13.932Z,42.60
2018-05-09T10:46:13.881Z,41.80
2018-05-09T10:47:13.872Z,42.31
2018-05-09T10:48:13.859Z,42.41
2018-05-09T10:49:13.827Z,42.19
2018-05-09T10:50:13.814Z,42.02
2018-05-09T10:51:13.804Z,42.50
2018-05-09T10:52:13.795Z,42.11
2018-05-09T10:53:13.758Z,41.93
2018-05-09T10:54:13.749Z,42.04
2018-05-09T10:55:13.720Z,41.36
2018-05-09T10:56:13.709Z,43.13
2018-05-09T10:57:13.705Z,40.68
2018-05-09T10:58:13.677Z,40.68
2018-05-09T10:59:13.652Z,40.88
2018-05-09T11:00:13.630Z,40.70
2018-05-09T11:01:13.605Z,40.41
2018-05-09T11:02:13.606Z,40.31
2018-05-09T11:03:13.608Z,41.09
2018-05-09T11:04:13.574Z,40.41
2018-05-09T11:05:13.547Z,40.31
2018-05-09T11:06:13.530Z,39.84
2018-05-09T11:07:13.541Z,38.48
2018-05-09T11:08:13.465Z,38.46
2018-05-09T11:09:13.485Z,39.90
2018-05-09T11:10:13.456Z,39.80
2018-05-09T11:11:13.433Z,40.29
2018-05-09T11:12:13.421Z,39.80
2018-05-09T11:13:13.401Z,40.01
2018-05-09T11:14:13.416Z,40.99
2018-05-09T11:15:13.383Z,40.72
2018-05-09T11:16:13.353Z,40.06
2018-05-09T11:17:13.315Z,38.69
2018-05-09T11:18:13.310Z,38.51
2018-05-09T11:19:13.306Z,38.14
2018-05-09T11:20:13.290Z,37.46
2018-05-09T11:21:13.260Z,36.98
2018-05-09T11:22:13.246Z,36.39
2018-05-09T11:23:13.235Z,35.80
2018-05-09T11:24:13.204Z,36.39
2018-05-09T11:25:13.185Z,35.06
2018-05-09T11:26:13.175Z,36.05
2018-05-09T11:27:13.166Z,33.62
2018-05-09T11:28:13.147Z,33.56
2018-05-09T11:29:13.118Z,33.12
2018-05-09T11:30:13.117Z,32.04
2018-05-09T11:31:13.061Z,30.87
2018-05-09T11:32:13.091Z,30.88
2018-05-09T11:33:13.105Z,30.49
2018-05-09T11:34:13.060Z,30.01
2018-05-09T11:35:13.061Z,30.11
2018-05-09T11:36:14.541Z,31.89
2018-05-09T11:37:15.577Z,30.63
2018-05-09T11:38:12.997Z,29.96
2018-05-09T11:39:12.966Z,28.45
2018-05-09T11:40:12.956Z,28.85
2018-05-09T11:41:12.937Z,29.05
2018-05-09T11:42:15.525Z,28.39
2018-05-09T11:43:12.916Z,27.98
2018-05-09T11:44:12.871Z,28.27
2018-05-09T11:45:12.907Z,27.31
2018-05-09T11:46:12.878Z,27.71
2018-05-09T11:47:12.847Z,26.91
2018-05-09T11:48:12.850Z,27.70
2018-05-09T11:49:12.841Z,27.80
2018-05-09T11:50:12.811Z,27.12
2018-05-09T11:51:12.803Z,27.42
2018-05-09T11:52:12.785Z,27.69
2018-05-09T11:53:12.936Z,29.03
2018-05-09T11:54:12.773Z,29.72
2018-05-09T11:55:12.754Z,29.11
2018-05-09T11:56:12.730Z,28.74
2018-05-09T11:57:12.688Z,28.08
2018-05-09T11:58:12.694Z,28.49
2018-05-09T11:59:12.693Z,28.47
2018-05-09T12:00:12.658Z,29.02
2018-05-09T12:01:12.667Z,29.05
2018-05-09T12:02:14.663Z,28.95
2018-05-09T12:03:14.578Z,28.06
2018-05-09T12:04:12.639Z,28.09
2018-05-09T12:05:12.622Z,28.78
2018-05-09T12:06:12.601Z,28.26
2018-05-09T12:07:14.562Z,29.44
2018-05-09T12:08:12.575Z,28.08
2018-05-09T12:09:12.587Z,27.32
2018-05-09T12:10:12.557Z,26.84
2018-05-09T12:11:14.063Z,26.74
2018-05-09T12:12:12.596Z,26.45
2018-05-09T12:13:12.519Z,26.54
2018-05-09T12:14:12.504Z,28.22
2018-05-09T12:15:12.522Z,28.72
2018-05-09T12:16:12.469Z,26.47
2018-05-09T12:17:12.459Z,26.56
2018-05-09T12:18:12.484Z,26.56
2018-05-09T12:19:12.448Z,26.95
2018-05-09T12:20:12.452Z,27.15
2018-05-09T12:21:12.429Z,27.05
2018-05-09T12:22:14.064Z,27.81
2018-05-09T12:23:12.428Z,26.61
2018-05-09T12:24:12.397Z,26.63
2018-05-09T12:25:12.389Z,26.46
2018-05-09T12:26:12.376Z,25.78
2018-05-09T12:27:12.371Z,27.70
2018-05-09T12:28:14.069Z,28.92
2018-05-09T12:29:12.333Z,29.33
2018-05-09T12:30:12.338Z,29.13
2018-05-09T12:31:12.328Z,28.92
2018-05-09T12:32:12.274Z,29.31
2018-05-09T12:33:12.305Z,29.14
2018-05-09T12:34:12.316Z,28.08
2018-05-09T12:35:12.304Z,27.60
2018-05-09T12:36:14.078Z,26.84
2018-05-09T12:37:12.263Z,26.07
2018-05-09T12:38:12.269Z,26.87
2018-05-09T12:39:12.221Z,25.01
2018-05-09T12:40:12.224Z,25.01
2018-05-09T12:41:12.215Z,25.67
2018-05-09T12:42:12.201Z,25.17
2018-05-09T12:43:12.205Z,25.18
2018-05-09T12:44:12.185Z,25.46
2018-05-09T12:45:14.076Z,25.45
2018-05-09T12:46:12.167Z,24.76
2018-05-09T12:47:12.185Z,25.16
2018-05-09T12:48:12.152Z,24.87
2018-05-09T12:49:12.123Z,24.58
2018-05-09T12:50:12.131Z,24.41
2018-05-09T12:51:12.138Z,23.72
2018-05-09T12:52:12.126Z,24.21